Torrington, WY

3:23 PM MDT on July 26, 2017 (GMT -0600)
Torrington Municipal | | Change Station

Elev 4206 ft 42.06 °N, 104.15 °W | Updated 30 minutes ago

Light Rain
Light Rain
79 °F
Feels Like 79 °F
N
8
Wind Variable Wind from East

Today
High -- | Low -- °F
--% Chance of Precip.
Yesterday
High -- | Low -- °F
Precip. -- in
Pressure 30.06 in
Visibility 10.0 miles
Clouds Few 4300 ft
Mostly Cloudy 10000 ft
Dew Point 52 °F
Humidity 39%
Rainfall 0.14 in
Snow Depth Not available.
5:44 AM 8:21 PM
Waxing Crescent, 15% visible
METAR KTOR 262053Z AUTO 10007KT 10SM -RA FEW043 BKN100 26/11 A3020 RMK AO2 RAB32 SLP177 P0000 60000 T02610111 58004
Pressure 30.06 in
Visibility 10.0 miles
Clouds Few 4300 ft
Mostly Cloudy 10000 ft
Dew Point 52 °F
Humidity 39%
Rainfall 0.14 in
Snow Depth Not available.
5:44 AM 8:21 PM
Waxing Crescent, 15% visible
METAR KTOR 262053Z AUTO 10007KT 10SM -RA FEW043 BKN100 26/11 A3020 RMK AO2 RAB32 SLP177 P0000 60000 T02610111 58004

Get Severe Weather Alerts

Thanks for signing up!

Be on the lookout for a verification email in your inbox.

You'll start receiving the daily forecast at 6 AM.

×

10-Day Weather Forecast

Almanac

Astronomy

Jul. 26, 2017 Rise Set
Actual Time
Civil Twilight
Nautical Twilight
Astronomical Twilight
Moon
Length of Visible Light
Length of Day
Tomorrow will be .
, % of the Moon is Illuminated

Today's Extremes

State Highs State Lows

Community

WunderPhotos

Category 6

Welcome to Category 6. This is the collective home for Weather Underground's featured writeups by Dr. Jeff Masters (right), Bob Henson (left), Chris Burt, and other regular contributors.

Nearby

Air Quality

  Air Quality AQ Index Pollutant
Not available.

Snow Depth

Station Depth Elevation

Earthquake Activity

City Distance Mag. Time & Date
Minimum magnitude displayed is 2.5.

Coastal Water Temperatures

Place Temperature

Stations

Nearby Weather Stations

Station Location Temp. Windchill Dew Point Humidity Wind Precip. Elev Updated Type
                   

Watches & Warnings

There are currently no watches in effect.